Observation data for Guthrie on 06/15/2019      Previous  Date  Next       Current Mesonet Observations  Soil Data  Daily Summary Page  Observations in Plain Language
KPFS 150500Z 14002KT 27/16 A2981 RMK A01 T02650160  RH  055%=      5-min Rain = 0
KPFS 150505Z 18003KT 27/16 A2981 RMK A01 T02690158  RH  053%=      5-min Rain = 0
KPFS 150510Z 17004KT 27/16 A2981 RMK A01 T02650158  RH  054%=      5-min Rain = 0
KPFS 150515Z 17004KT 27/16 A2981 RMK A01 T02650158  RH  054%=      5-min Rain = 0
KPFS 150520Z 16005KT 27/16 A2981 RMK A01 T02650158  RH  054%=      5-min Rain = 0
KPFS 150525Z 15004KT 26/16 A2981 RMK A01 T02630159  RH  055%=      5-min Rain = 0
KPFS 150530Z 13004KT 26/16 A2981 RMK A01 T02580159  RH  057%=      5-min Rain = 0
KPFS 150535Z 13005KT 26/16 A2981 RMK A01 T02590158  RH  057%=      5-min Rain = 0
KPFS 150540Z 13006KT 26/16 A2981 RMK A01 T02570159  RH  057%=      5-min Rain = 0
KPFS 150545Z 14006KT 26/16 A2981 RMK A01 T02600158  RH  056%=      5-min Rain = 0
KPFS 150550Z 14006KT 26/16 A2981 RMK A01 T02600158  RH  056%=      5-min Rain = 0
KPFS 150555Z 14007KT 26/16 A2981 RMK A01 T02590159  RH  057%=      5-min Rain = 0
KPFS 150600Z 14008KT 26/16 A2981 RMK A01 T02560159  RH  058%=      5-min Rain = 0
KPFS 150605Z 13007KT 25/16 A2981 RMK A01 T02540160  RH  059%=      5-min Rain = 0
KPFS 150610Z 13008KT 25/16 A2982 RMK A01 T02510161  RH  060%=      5-min Rain = 0
KPFS 150615Z 14006KT 25/16 A2983 RMK A01 T02490161  RH  061%=      5-min Rain = 0
KPFS 150620Z 14006KT 25/16 A2983 RMK A01 T02480161  RH  061%=      5-min Rain = 0
KPFS 150625Z 14008KT 25/16 A2982 RMK A01 T02460161  RH  062%=      5-min Rain = 0
KPFS 150630Z 14009KT 25/16 A2982 RMK A01 T02480160  RH  061%=      5-min Rain = 0
KPFS 150635Z 14008KT 25/16 A2981 RMK A01 T02460161  RH  062%=      5-min Rain = 0
KPFS 150640Z 13007KT 25/16 A2982 RMK A01 T02460161  RH  062%=      5-min Rain = 0
KPFS 150645Z 13007KT 24/16 A2982 RMK A01 T02420162  RH  064%=      5-min Rain = 0
KPFS 150650Z 14008KT 24/16 A2982 RMK A01 T02390161  RH  065%=      5-min Rain = 0
KPFS 150655Z 14008KT 24/16 A2981 RMK A01 T02380161  RH  065%=      5-min Rain = 0
KPFS 150700Z 14008KT 24/16 A2981 RMK A01 T02370161  RH  065%=      5-min Rain = 0
KPFS 150705Z 14008KT 24/16 A2981 RMK A01 T02370161  RH  065%=      5-min Rain = 0
KPFS 150710Z 14007KT 24/16 A2981 RMK A01 T02350161  RH  066%=      5-min Rain = 0
KPFS 150715Z 14008KT 23/16 A2981 RMK A01 T02340161  RH  066%=      5-min Rain = 0
KPFS 150720Z 15009KT 23/16 A298 RMK A01 T02330161  RH  067%=      5-min Rain = 0
KPFS 150725Z 16009KT 23/16 A298 RMK A01 T02330160  RH  067%=      5-min Rain = 0
KPFS 150730Z 16009KT 23/16 A298 RMK A01 T02330160  RH  067%=      5-min Rain = 0
KPFS 150735Z 16009KT 23/16 A298 RMK A01 T02310160  RH  068%=      5-min Rain = 0
KPFS 150740Z 16009KT 23/16 A2979 RMK A01 T02280160  RH  068%=      5-min Rain = 0
KPFS 150745Z 16009KT 23/16 A2979 RMK A01 T02270160  RH  069%=      5-min Rain = 0
KPFS 150750Z 16010KT 23/16 A2979 RMK A01 T02260159  RH  069%=      5-min Rain = 0
KPFS 150755Z 16009KT 23/16 A2979 RMK A01 T02260159  RH  069%=      5-min Rain = 0
KPFS 150800Z 16009KT 23/16 A2979 RMK A01 T02260158  RH  069%=      5-min Rain = 0
KPFS 150805Z 16009KT 23/16 A2978 RMK A01 T02250158  RH  069%=      5-min Rain = 0
KPFS 150810Z 17009KT 22/16 A2978 RMK A01 T02240157  RH  069%=      5-min Rain = 0
KPFS 150815Z 17009KT 23/16 A2978 RMK A01 T02250157  RH  069%=      5-min Rain = 0
KPFS 150820Z 17009KT 23/16 A2978 RMK A01 T02250157  RH  068%=      5-min Rain = 0
KPFS 150825Z 17009KT 23/16 A2978 RMK A01 T02260156  RH  068%=      5-min Rain = 0
KPFS 150830Z 17010KT 23/16 A2977 RMK A01 T02270156  RH  067%=      5-min Rain = 0
KPFS 150835Z 18010KT 23/16 A2977 RMK A01 T02270156  RH  067%=      5-min Rain = 0
KPFS 150840Z 18009KT 23/16 A2977 RMK A01 T02260156  RH  068%=      5-min Rain = 0
KPFS 150845Z 18010KT 23/16 A2976 RMK A01 T02250156  RH  068%=      5-min Rain = 0
KPFS 150850Z 18012KT 22/16 A2976 RMK A01 T02230156  RH  069%=      5-min Rain = 0
KPFS 150855Z 19013KT 23/16 A2976 RMK A01 T02270156  RH  067%=      5-min Rain = 0
KPFS 150900Z 19013KT 23/16 A2976 RMK A01 T02290155  RH  066%=      5-min Rain = 0
KPFS 150905Z 19014KT 23/16 A2975 RMK A01 T02310155  RH  065%=      5-min Rain = 0
KPFS 150910Z 20013KT 23/16 A2975 RMK A01 T02320155  RH  065%=      5-min Rain = 0
KPFS 150915Z 20014KT 23/16 A2975 RMK A01 T02320155  RH  065%=      5-min Rain = 0
KPFS 150920Z 20013KT 23/16 A2975 RMK A01 T02330155  RH  064%=      5-min Rain = 0
KPFS 150925Z 20013KT 23/16 A2975 RMK A01 T02330155  RH  064%=      5-min Rain = 0
KPFS 150930Z 20013KT 23/15 A2975 RMK A01 T02330154  RH  064%=      5-min Rain = 0
KPFS 150935Z 20013G18KT 23/15 A2975 RMK A01 T02340154  RH  064%=      5-min Rain = 0
KPFS 150940Z 20012KT 23/15 A2975 RMK A01 T02330153  RH  064%=      5-min Rain = 0
KPFS 150945Z 20012KT 23/15 A2975 RMK A01 T02320153  RH  064%=      5-min Rain = 0
KPFS 150950Z 20012G17KT 23/15 A2974 RMK A01 T02320153  RH  064%=      5-min Rain = 0
KPFS 150955Z 20012KT 23/15 A2974 RMK A01 T02330152  RH  063%=      5-min Rain = 0
KPFS 151000Z 20011KT 23/15 A2974 RMK A01 T02330152  RH  063%=      5-min Rain = 0
KPFS 151005Z 20011KT 23/15 A2974 RMK A01 T02320152  RH  064%=      5-min Rain = 0
KPFS 151010Z 20010KT 23/15 A2974 RMK A01 T02310152  RH  064%=      5-min Rain = 0
KPFS 151015Z 20009KT 23/15 A2974 RMK A01 T02300151  RH  064%=      5-min Rain = 0
KPFS 151020Z 21006KT 23/15 A2975 RMK A01 T02280151  RH  065%=      5-min Rain = 0
KPFS 151025Z 20005KT 23/15 A2975 RMK A01 T02260151  RH  065%=      5-min Rain = 0
KPFS 151030Z 18004KT 23/15 A2975 RMK A01 T02260151  RH  065%=      5-min Rain = 0
KPFS 151035Z 15004KT 23/15 A2975 RMK A01 T02270151  RH  065%=      5-min Rain = 0
KPFS 151040Z 13005KT 23/15 A2975 RMK A01 T02280151  RH  065%=      5-min Rain = 0
KPFS 151045Z 11006KT 22/15 A2975 RMK A01 T02230152  RH  067%=      5-min Rain = 0
KPFS 151050Z 12008KT 22/15 A2975 RMK A01 T02150153  RH  071%=      5-min Rain = 0
KPFS 151055Z 13007KT 22/15 A2975 RMK A01 T02170153  RH  070%=      5-min Rain = 0
KPFS 151100Z 15008KT 22/15 A2975 RMK A01 T02150152  RH  071%=      5-min Rain = 0
KPFS 151105Z 17009KT 22/15 A2975 RMK A01 T02170152  RH  070%=      5-min Rain = 0
KPFS 151110Z 17010KT 22/15 A2975 RMK A01 T02200152  RH  068%=      5-min Rain = 0
KPFS 151115Z 18010KT 22/15 A2975 RMK A01 T02210152  RH  068%=      5-min Rain = 0
KPFS 151120Z 18010KT 22/15 A2975 RMK A01 T02200152  RH  068%=      5-min Rain = 0
KPFS 151125Z 17010KT 22/15 A2975 RMK A01 T02220152  RH  068%=      5-min Rain = 0
KPFS 151130Z 16009KT 22/15 A2975 RMK A01 T02190153  RH  069%=      5-min Rain = 0
KPFS 151135Z 15009KT 21/15 A2976 RMK A01 T02140154  RH  072%=      5-min Rain = 0
KPFS 151140Z 15009KT 21/15 A2976 RMK A01 T02110154  RH  073%=      5-min Rain = 0
KPFS 151145Z 16009KT 21/16 A2976 RMK A01 T02110155  RH  073%=      5-min Rain = 0
KPFS 151150Z 16010KT 21/15 A2977 RMK A01 T02120154  RH  073%=      5-min Rain = 0
KPFS 151155Z 16010KT 21/16 A2977 RMK A01 T02130155  RH  073%=      5-min Rain = 0
KPFS 151200Z 16011KT 21/16 A2977 RMK A01 T02140155  RH  072%=      5-min Rain = 0
KPFS 151205Z 17011KT 22/16 A2977 RMK A01 T02160155  RH  072%=      5-min Rain = 0
KPFS 151210Z 17011KT 22/16 A2977 RMK A01 T02180155  RH  071%=      5-min Rain = 0
KPFS 151215Z 16010KT 22/16 A2977 RMK A01 T02180156  RH  071%=      5-min Rain = 0
KPFS 151220Z 17010KT 22/16 A2977 RMK A01 T02200156  RH  070%=      5-min Rain = 0
KPFS 151225Z 17010KT 22/16 A2977 RMK A01 T02230157  RH  069%=      5-min Rain = 0
KPFS 151230Z 17009KT 23/16 A2978 RMK A01 T02250158  RH  069%=      5-min Rain = 0
KPFS 151235Z 17010KT 23/16 A2977 RMK A01 T02270158  RH  068%=      5-min Rain = 0
KPFS 151240Z 17010KT 23/16 A2977 RMK A01 T02270159  RH  069%=      5-min Rain = 0
KPFS 151245Z 17010KT 23/16 A2977 RMK A01 T02280160  RH  069%=      5-min Rain = 0
KPFS 151250Z 17010KT 23/16 A2977 RMK A01 T02300160  RH  068%=      5-min Rain = 0
KPFS 151255Z 17009KT 23/16 A2977 RMK A01 T02320161  RH  068%=      5-min Rain = 0
KPFS 151300Z 17008KT 23/16 A2977 RMK A01 T02340162  RH  067%=      5-min Rain = 0
KPFS 151305Z 18007KT 24/16 A2978 RMK A01 T02360163  RH  067%=      5-min Rain = 0
KPFS 151310Z 17008KT 24/16 A2978 RMK A01 T02380164  RH  066%=      5-min Rain = 0
KPFS 151315Z 18008KT 24/17 A2978 RMK A01 T02410165  RH  066%=      5-min Rain = 0
KPFS 151320Z 18009KT 24/17 A2978 RMK A01 T02430165  RH  064%=      5-min Rain = 0
KPFS 151325Z 18010KT 25/16 A2978 RMK A01 T02460164  RH  063%=      5-min Rain = 0
KPFS 151330Z 18009G15KT 25/16 A2978 RMK A01 T02490163  RH  062%=      5-min Rain = 0
KPFS 151335Z 18009KT 25/16 A2978 RMK A01 T02510163  RH  061%=      5-min Rain = 0
KPFS 151340Z 18009KT 25/16 A2978 RMK A01 T02530163  RH  060%=      5-min Rain = 0
KPFS 151345Z 19009G14KT 26/16 A2978 RMK A01 T02550164  RH  060%=      5-min Rain = 0
KPFS 151350Z 19011KT 26/16 A2978 RMK A01 T02570161  RH  058%=      5-min Rain = 0
KPFS 151355Z 19011KT 26/16 A2978 RMK A01 T02580161  RH  058%=      5-min Rain = 0
KPFS 151400Z 19011KT 26/16 A2978 RMK A01 T02610161  RH  057%=      5-min Rain = 0
KPFS 151405Z 19011KT 26/16 A2978 RMK A01 T02630160  RH  056%=      5-min Rain = 0
KPFS 151410Z 20011G16KT 26/16 A2978 RMK A01 T02630159  RH  055%=      5-min Rain = 0
KPFS 151415Z 19010KT 27/16 A2978 RMK A01 T02670162  RH  055%=      5-min Rain = 0
KPFS 151420Z 19010KT 27/16 A2978 RMK A01 T02690163  RH  055%=      5-min Rain = 0
KPFS 151425Z 20009KT 27/16 A2978 RMK A01 T02730163  RH  054%=      5-min Rain = 0
KPFS 151430Z 21012KT 28/16 A2978 RMK A01 T02760157  RH  051%=      5-min Rain = 0
KPFS 151435Z 21014G20KT 28/15 A2978 RMK A01 T02770154  RH  049%=      5-min Rain = 0
KPFS 151440Z 21013G20KT 28/15 A2978 RMK A01 T02790153  RH  049%=      5-min Rain = 0
KPFS 151445Z 20015G21KT 28/15 A2978 RMK A01 T02800152  RH  048%=      5-min Rain = 0
KPFS 151450Z 20017KT 28/15 A2978 RMK A01 T02820148  RH  046%=      5-min Rain = 0
KPFS 151455Z 21016G21KT 28/15 A2978 RMK A01 T02840149  RH  046%=      5-min Rain = 0
KPFS 151500Z 20015G20KT 29/15 A2978 RMK A01 T02860149  RH  045%=      5-min Rain = 0
KPFS 151505Z 21016KT 29/15 A2978 RMK A01 T02890147  RH  044%=      5-min Rain = 0
KPFS 151510Z 20016G23KT 29/15 A2977 RMK A01 T02890147  RH  044%=      5-min Rain = 0
KPFS 151515Z 20018G23KT 29/15 A2977 RMK A01 T02910145  RH  043%=      5-min Rain = 0
KPFS 151520Z 20018G23KT 29/14 A2977 RMK A01 T02900143  RH  042%=      5-min Rain = 0
KPFS 151525Z 20019KT 29/14 A2977 RMK A01 T02920142  RH  042%=      5-min Rain = 0
KPFS 151530Z 20016G22KT 30/15 A2977 RMK A01 T02960146  RH  042%=      5-min Rain = 0
KPFS 151535Z 21015G21KT 30/15 A2977 RMK A01 T02970146  RH  042%=      5-min Rain = 0
KPFS 151540Z 21015G22KT 30/15 A2977 RMK A01 T02980145  RH  041%=      5-min Rain = 0
KPFS 151545Z 21015G21KT 30/15 A2977 RMK A01 T03010147  RH  041%=      5-min Rain = 0
KPFS 151550Z 20016G21KT 30/15 A2977 RMK A01 T03010145  RH  040%=      5-min Rain = 0
KPFS 151555Z 21013G20KT 31/15 A2977 RMK A01 T03050151  RH  041%=      5-min Rain = 0
KPFS 151600Z 21014KT 31/15 A2977 RMK A01 T03050149  RH  040%=      5-min Rain = 0
KPFS 151605Z 21013G19KT 31/15 A2977 RMK A01 T03070149  RH  040%=      5-min Rain = 0
KPFS 151610Z 21011G17KT 31/15 A2977 RMK A01 T03100152  RH  040%=      5-min Rain = 0
KPFS 151615Z 21012G19KT 31/15 A2977 RMK A01 T03110147  RH  039%=      5-min Rain = 0
KPFS 151620Z 22010KT 31/15 A2977 RMK A01 T03130150  RH  039%=      5-min Rain = 0
KPFS 151625Z 21011G16KT 31/15 A2977 RMK A01 T03140146  RH  038%=      5-min Rain = 0
KPFS 151630Z 22011KT 32/14 A2977 RMK A01 T03150144  RH  037%=      5-min Rain = 0
KPFS 151635Z 21012G17KT 32/15 A2977 RMK A01 T03170145  RH  037%=      5-min Rain = 0
KPFS 151640Z 21016G22KT 32/14 A2976 RMK A01 T03160143  RH  037%=      5-min Rain = 0
KPFS 151645Z 21013G20KT 32/15 A2976 RMK A01 T03180146  RH  037%=      5-min Rain = 0
KPFS 151650Z 21012G17KT 32/15 A2977 RMK A01 T03210145  RH  036%=      5-min Rain = 0
KPFS 151655Z 21013KT 32/14 A2977 RMK A01 T03220144  RH  036%=      5-min Rain = 0
KPFS 151700Z 20014KT 32/14 A2976 RMK A01 T03200143  RH  036%=      5-min Rain = 0
KPFS 151705Z 21012KT 33/15 A2977 RMK A01 T03250146  RH  035%=      5-min Rain = 0
KPFS 151710Z 21012G18KT 33/15 A2977 RMK A01 T03250145  RH  035%=      5-min Rain = 0
KPFS 151715Z 22012G18KT 33/15 A2977 RMK A01 T03280146  RH  035%=      5-min Rain = 0
KPFS 151720Z 20012G17KT 33/15 A2976 RMK A01 T03290148  RH  035%=      5-min Rain = 0
KPFS 151725Z 20013KT 33/14 A2976 RMK A01 T03290140  RH  033%=      5-min Rain = 0
KPFS 151730Z 21012G18KT 33/14 A2976 RMK A01 T03320143  RH  034%=      5-min Rain = 0
KPFS 151735Z 20013KT 33/14 A2976 RMK A01 T03310142  RH  033%=      5-min Rain = 0
KPFS 151740Z 20011G18KT 34/14 A2976 RMK A01 T03350144  RH  033%=      5-min Rain = 0
KPFS 151745Z 20013KT 34/14 A2976 RMK A01 T03360138  RH  032%=      5-min Rain = 0
KPFS 151750Z 21012G19KT 34/14 A2976 RMK A01 T03360138  RH  032%=      5-min Rain = 0
KPFS 151755Z 21008KT 34/15 A2976 RMK A01 T03390145  RH  032%=      5-min Rain = 0
KPFS 151800Z 21010KT 34/14 A2976 RMK A01 T03430139  RH  030%=      5-min Rain = 0
KPFS 151805Z 21010KT 34/13 A2976 RMK A01 T03420133  RH  029%=      5-min Rain = 0
KPFS 151810Z 22008G13KT 35/14 A2976 RMK A01 T03450139  RH  030%=      5-min Rain = 0
KPFS 151815Z 22011KT 35/14 A2976 RMK A01 T03480138  RH  030%=      5-min Rain = 0
KPFS 151820Z 20009G14KT 35/14 A2976 RMK A01 T03470136  RH  029%=      5-min Rain = 0
KPFS 151825Z 20009G18KT 35/14 A2976 RMK A01 T03450135  RH  030%=      5-min Rain = 0
KPFS 151830Z 21007G12KT 35/14 A2976 RMK A01 T03480141  RH  030%=      5-min Rain = 0
KPFS 151835Z 22008G14KT 35/14 A2976 RMK A01 T03490138  RH  029%=      5-min Rain = 0
KPFS 151840Z 20010KT 35/14 A2975 RMK A01 T03540142  RH  029%=      5-min Rain = 0
KPFS 151845Z 20009G15KT 35/14 A2975 RMK A01 T03520139  RH  029%=      5-min Rain = 0
KPFS 151850Z 21009KT 35/13 A2975 RMK A01 T03530131  RH  027%=      5-min Rain = 0
KPFS 151855Z 21011KT 36/14 A2975 RMK A01 T03550139  RH  029%=      5-min Rain = 0
KPFS 151900Z 20009G14KT 36/14 A2975 RMK A01 T03550140  RH  029%=      5-min Rain = 0
KPFS 151905Z 19010KT 36/14 A2975 RMK A01 T03560139  RH  028%=      5-min Rain = 0
KPFS 151910Z 20009G15KT 36/14 A2975 RMK A01 T03570135  RH  028%=      5-min Rain = 0
KPFS 151915Z 20008KT 36/14 A2974 RMK A01 T03590139  RH  028%=      5-min Rain = 0
KPFS 151920Z 19011G17KT 36/14 A2974 RMK A01 T03590135  RH  027%=      5-min Rain = 0
KPFS 151925Z 19010KT 36/14 A2974 RMK A01 T03600141  RH  028%=      5-min Rain = 0
KPFS 151930Z 19009G14KT 36/13 A2974 RMK A01 T03620133  RH  027%=      5-min Rain = 0
KPFS 151935Z 21010KT 37/13 A2974 RMK A01 T03650125  RH  025%=      5-min Rain = 0
KPFS 151940Z 22008KT 37/13 A2974 RMK A01 T03660134  RH  026%=      5-min Rain = 0
KPFS 151945Z 21006KT 36/13 A2974 RMK A01 T03640129  RH  025%=      5-min Rain = 0
KPFS 151950Z 20006KT 37/13 A2973 RMK A01 T03700126  RH  024%=      5-min Rain = 0
KPFS 151955Z 22009KT 37/11 A2973 RMK A01 T03710111  RH  022%=      5-min Rain = 0
KPFS 152000Z 23006G11KT 37/12 A2973 RMK A01 T03730119  RH  023%=      5-min Rain = 0
KPFS 152005Z 21005G10KT 37/13 A2973 RMK A01 T03700130  RH  025%=      5-min Rain = 0
KPFS 152010Z 23006KT 38/12 A2973 RMK A01 T03750120  RH  023%=      5-min Rain = 0
KPFS 152015Z 22005KT 38/11 A2973 RMK A01 T03750112  RH  021%=      5-min Rain = 0
KPFS 152020Z 21008KT 37/12 A2973 RMK A01 T03710124  RH  024%=      5-min Rain = 0
KPFS 152025Z 18006KT 37/12 A2973 RMK A01 T03690122  RH  024%=      5-min Rain = 0
KPFS 152030Z 18005KT 37/12 A2973 RMK A01 T03660123  RH  024%=      5-min Rain = 0
KPFS 152035Z 19008KT 36/14 A2973 RMK A01 T03590135  RH  027%=      5-min Rain = 0
KPFS 152040Z 20008KT 36/14 A2973 RMK A01 T03630138  RH  027%=      5-min Rain = 0
KPFS 152045Z 19007G13KT 37/13 A2973 RMK A01 T03650134  RH  026%=      5-min Rain = 0
KPFS 152050Z 23007KT 37/12 A2973 RMK A01 T03720116  RH  022%=      5-min Rain = 0
KPFS 152055Z 21006KT 37/11 A2973 RMK A01 T03720109  RH  021%=      5-min Rain = 0
KPFS 152100Z 21007KT 37/12 A2972 RMK A01 T03690123  RH  024%=      5-min Rain = 0
KPFS 152105Z 16010KT 36/13 A2972 RMK A01 T03620133  RH  026%=      5-min Rain = 0
KPFS 152110Z 17009KT 36/13 A2972 RMK A01 T03600133  RH  027%=      5-min Rain = 0
KPFS 152115Z 16007KT 35/14 A2972 RMK A01 T03540135  RH  028%=      5-min Rain = 0
KPFS 152120Z 16007KT 35/13 A2972 RMK A01 T03520129  RH  027%=      5-min Rain = 0
KPFS 152125Z 16010KT 37/13 A2972 RMK A01 T03670134  RH  026%=      5-min Rain = 0
KPFS 152130Z 18007G12KT 37/13 A2972 RMK A01 T03730132  RH  025%=      5-min Rain = 0
KPFS 152135Z 18008G13KT 38/13 A2972 RMK A01 T03760134  RH  025%=      5-min Rain = 0
KPFS 152140Z 16010KT 37/13 A2972 RMK A01 T03720128  RH  024%=      5-min Rain = 0
KPFS 152145Z 15009KT 36/12 A2972 RMK A01 T03600122  RH  025%=      5-min Rain = 0
KPFS 152150Z 17008KT 35/13 A2972 RMK A01 T03520125  RH  026%=      5-min Rain = 0
KPFS 152155Z 17007KT 36/13 A2972 RMK A01 T03620129  RH  026%=      5-min Rain = 0
KPFS 152200Z 17009KT 37/12 A2971 RMK A01 T03730121  RH  023%=      5-min Rain = 0
KPFS 152205Z 15010G16KT 37/13 A2971 RMK A01 T03720127  RH  024%=      5-min Rain = 0
KPFS 152210Z 16010KT 37/13 A2971 RMK A01 T03710131  RH  025%=      5-min Rain = 0
KPFS 152215Z 17010KT 37/13 A297 RMK A01 T03700128  RH  025%=      5-min Rain = 0
KPFS 152220Z 16011KT 37/12 A297 RMK A01 T03680121  RH  024%=      5-min Rain = 0
KPFS 152225Z 17010KT 37/12 A297 RMK A01 T03680123  RH  024%=      5-min Rain = 0
KPFS 152230Z 17011G16KT 37/12 A297 RMK A01 T03690123  RH  024%=      5-min Rain = 0
KPFS 152235Z 16010KT 36/12 A297 RMK A01 T03630118  RH  024%=      5-min Rain = 0
KPFS 152240Z 16008KT 35/12 A297 RMK A01 T03520120  RH  026%=      5-min Rain = 0
KPFS 152245Z 15008KT 35/12 A2969 RMK A01 T03490118  RH  026%=      5-min Rain = 0
KPFS 152250Z 14007KT 35/12 A2969 RMK A01 T03480122  RH  026%=      5-min Rain = 0
KPFS 152255Z 13006KT 35/13 A2969 RMK A01 T03450133  RH  029%=      5-min Rain = 0
KPFS 152300Z 14005KT 34/14 A2969 RMK A01 T03430137  RH  030%=      5-min Rain = 0
KPFS 152305Z 14004KT 34/14 A297 RMK A01 T03410142  RH  032%=      5-min Rain = 0
KPFS 152310Z 14004KT 34/15 A2969 RMK A01 T03380146  RH  033%=      5-min Rain = 0
KPFS 152315Z 13004KT 33/15 A2969 RMK A01 T03340147  RH  034%=      5-min Rain = 0
KPFS 152320Z 11006KT 33/15 A297 RMK A01 T03300151  RH  036%=      5-min Rain = 0
KPFS 152325Z 11007KT 33/15 A297 RMK A01 T03260152  RH  037%=      5-min Rain = 0
KPFS 152330Z 11007KT 32/16 A297 RMK A01 T03210158  RH  039%=      5-min Rain = 0
KPFS 152335Z 10008KT 32/17 A297 RMK A01 T03170165  RH  042%=      5-min Rain = 0
KPFS 152340Z 10008KT 32/17 A297 RMK A01 T03150167  RH  043%=      5-min Rain = 0
KPFS 152345Z 11007KT 31/17 A2969 RMK A01 T03140169  RH  044%=      5-min Rain = 0
KPFS 152350Z 11008KT 31/17 A2969 RMK A01 T03130170  RH  045%=      5-min Rain = 0
KPFS 152355Z 11009KT 31/17 A297 RMK A01 T03110171  RH  045%=      5-min Rain = 0
KPFS 160000Z 11009KT 31/17 A297 RMK A01 T03100173  RH  046%=      5-min Rain = 0
KPFS 160005Z 11009KT 31/18 A297 RMK A01 T03100178  RH  048%=      5-min Rain = 0
KPFS 160010Z 12008KT 31/18 A297 RMK A01 T03080178  RH  048%=      5-min Rain = 0
KPFS 160015Z 12008KT 31/18 A2971 RMK A01 T03080177  RH  048%=      5-min Rain = 0
KPFS 160020Z 11007KT 31/18 A2972 RMK A01 T03080179  RH  049%=      5-min Rain = 0
KPFS 160025Z 11007KT 31/18 A2972 RMK A01 T03070181  RH  050%=      5-min Rain = 0
KPFS 160030Z 10007KT 31/18 A2971 RMK A01 T03070182  RH  050%=      5-min Rain = 0
KPFS 160035Z 10008KT 31/18 A2971 RMK A01 T03060183  RH  050%=      5-min Rain = 0
KPFS 160040Z 10007KT 31/18 A2971 RMK A01 T03060184  RH  051%=      5-min Rain = 0
KPFS 160045Z 08004KT 31/19 A2972 RMK A01 T03080185  RH  051%=      5-min Rain = 0
KPFS 160050Z 33006G13KT 30/19 A2972 RMK A01 T03020190  RH  054%=      5-min Rain = 0
KPFS 160055Z 33013KT 29/20 A2971 RMK A01 T02850197  RH  063%=      5-min Rain = 0
KPFS 160100Z 34012G17KT 29/18 A2969 RMK A01 T02860175  RH  054%=      5-min Rain = 0
KPFS 160105Z 35014KT 27/17 A2969 RMK A01 T02740165  RH  054%=      5-min Rain = 0
KPFS 160110Z 34012G18KT 27/17 A2971 RMK A01 T02660167  RH  057%=      5-min Rain = 0
KPFS 160115Z 35016KT 27/17 A2972 RMK A01 T02730166  RH  054%=      5-min Rain = 0
KPFS 160120Z 35019G28KT 27/16 A2974 RMK A01 T02680158  RH  053%=      5-min Rain = 0
KPFS 160125Z 34021G29KT 25/15 A2975 RMK A01 T02490152  RH  057%=      5-min Rain = 0
KPFS 160130Z 35022G28KT 23/16 A2976 RMK A01 T02250157  RH  069%=      5-min Rain = 0
KPFS 160135Z 35021G29KT 21/16 A2975 RMK A01 T02130157  RH  074%=      5-min Rain = 0
KPFS 160140Z 01018G26KT 21/15 A2975 RMK A01 T02120148  RH  070%=      5-min Rain = 0.01
KPFS 160145Z 02015G24KT 21/14 A2974 RMK A01 T02140141  RH  066%=      5-min Rain = 0
KPFS 160150Z 03011KT 21/15 A2974 RMK A01 T02080145  RH  070%=      5-min Rain = 0
KPFS 160155Z 05017G29KT 20/15 A2973 RMK A01 T02030145  RH  072%=      5-min Rain = 0
KPFS 160200Z 04013G20KT 19/14 A2973 RMK A01 T01910143  RH  077%=      5-min Rain = 0
KPFS 160205Z 05010KT 19/14 A2973 RMK A01 T01900144  RH  078%=      5-min Rain = 0
KPFS 160210Z 04007KT 19/15 A2976 RMK A01 T01850150  RH  083%=      5-min Rain = 0.12
KPFS 160215Z 06008G15KT 17/15 A2978 RMK A01 T01740150  RH  090%=      5-min Rain = 0.41
KPFS 160220Z 10010G16KT 18/16 A2982 RMK A01 T01750160  RH  095%=      5-min Rain = 0.26
KPFS 160225Z 33012G25KT 17/16 A2984 RMK A01 T01680155  RH  096%=      5-min Rain = 0.13
KPFS 160230Z 03016G21KT 17/15 A2979 RMK A01 T01660154  RH  097%=      5-min Rain = 0.14
KPFS 160235Z 06023G30KT 17/16 A2976 RMK A01 T01700159  RH  098%=      5-min Rain = 0.04
KPFS 160240Z 07023G30KT 18/16 A2977 RMK A01 T01750160  RH  095%=      5-min Rain = 0.03
KPFS 160245Z 11020G27KT 18/15 A298 RMK A01 T01790152  RH  088%=      5-min Rain = 0.03
KPFS 160250Z 15024G37KT 17/15 A2983 RMK A01 T01680147  RH  092%=      5-min Rain = 0.17
KPFS 160255Z 11017G27KT 17/15 A2982 RMK A01 T01680146  RH  090%=      5-min Rain = 0.05
KPFS 160300Z 12016G21KT 17/14 A2983 RMK A01 T01680143  RH  089%=      5-min Rain = 0.02
KPFS 160305Z 09013G18KT 17/14 A2982 RMK A01 T01660143  RH  090%=      5-min Rain = 0.02
KPFS 160310Z 08011KT 18/14 A2981 RMK A01 T01750143  RH  085%=      5-min Rain = 0
KPFS 160315Z 10008G16KT 18/14 A2979 RMK A01 T01840143  RH  081%=      5-min Rain = 0
KPFS 160320Z 11011G21KT 18/14 A2979 RMK A01 T01790141  RH  082%=      5-min Rain = 0.01
KPFS 160325Z 09009KT 18/14 A2979 RMK A01 T01790142  RH  082%=      5-min Rain = 0
KPFS 160330Z 36011G19KT 18/14 A298 RMK A01 T01810144  RH  082%=      5-min Rain = 0
KPFS 160335Z 02013G19KT 17/15 A2979 RMK A01 T01740145  RH  087%=      5-min Rain = 0
KPFS 160340Z 04012KT 17/15 A2978 RMK A01 T01710145  RH  089%=      5-min Rain = 0
KPFS 160345Z 02008KT 17/15 A2978 RMK A01 T01690147  RH  091%=      5-min Rain = 0
KPFS 160350Z 36009KT 17/15 A2977 RMK A01 T01680150  RH  093%=      5-min Rain = 0
KPFS 160355Z 01004G9KT 17/15 A2977 RMK A01 T01670150  RH  094%=      5-min Rain = 0
KPFS 160400Z 02001KT 17/15 A2977 RMK A01 T01670151  RH  094%=      5-min Rain = 0
KPFS 160405Z 21002KT 17/15 A2979 RMK A01 T01680152  RH  094%=      5-min Rain = 0
KPFS 160410Z 17006KT 17/15 A2979 RMK A01 T01670152  RH  095%=      5-min Rain = 0
KPFS 160415Z 18010KT 17/15 A2981 RMK A01 T01670152  RH  095%=      5-min Rain = 0
KPFS 160420Z 20010G15KT 17/15 A2983 RMK A01 T01700154  RH  094%=      5-min Rain = 0
KPFS 160425Z 18010G16KT 18/16 A2982 RMK A01 T01770157  RH  092%=      5-min Rain = 0
KPFS 160430Z 18010G15KT 18/16 A2982 RMK A01 T01810160  RH  092%=      5-min Rain = 0.05
KPFS 160435Z 26006KT 18/16 A2985 RMK A01 T01800162  RH  094%=      5-min Rain = 0.04
KPFS 160440Z 12004G10KT 18/16 A2984 RMK A01 T01790163  RH  095%=      5-min Rain = 0.07
KPFS 160445Z 06005KT 18/17 A2984 RMK A01 T01800165  RH  096%=      5-min Rain = 0.07
KPFS 160450Z 07006KT 18/17 A2983 RMK A01 T01800166  RH  096%=      5-min Rain = 0.02
KPFS 160455Z 01004KT 18/17 A2984 RMK A01 T01830170  RH  097%=      5-min Rain = 0

Page generated in 0.0095 seconds.